sensor_id;sensor_type;location;lat;lon;timestamp;temperature;humidity
23532;DHT22;11943;52.270;20.978;2023-03-03T00:01:12;0.00;99.90
23532;DHT22;11943;52.270;20.978;2023-03-03T00:03:38;0.00;99.90
23532;DHT22;11943;52.270;20.978;2023-03-03T00:06:04;0.00;99.90
23532;DHT22;11943;52.270;20.978;2023-03-03T00:08:30;0.00;99.90
23532;DHT22;11943;52.270;20.978;2023-03-03T00:10:57;0.00;99.90
23532;DHT22;11943;52.270;20.978;2023-03-03T00:13:23;0.00;99.90
23532;DHT22;11943;52.270;20.978;2023-03-03T00:15:49;-0.10;99.90
23532;DHT22;11943;52.270;20.978;2023-03-03T00:20:54;0.00;99.90
23532;DHT22;11943;52.270;20.978;2023-03-03T00:23:37;-0.10;99.90
23532;DHT22;11943;52.270;20.978;2023-03-03T00:28:48;-0.10;99.90
23532;DHT22;11943;52.270;20.978;2023-03-03T00:31:15;-0.10;99.90
23532;DHT22;11943;52.270;20.978;2023-03-03T00:33:46;-0.10;99.90
23532;DHT22;11943;52.270;20.978;2023-03-03T00:38:41;-0.10;99.90
23532;DHT22;11943;52.270;20.978;2023-03-03T00:41:23;-0.10;99.90
23532;DHT22;11943;52.270;20.978;2023-03-03T00:43:49;-0.10;99.90
23532;DHT22;11943;52.270;20.978;2023-03-03T00:46:18;-0.10;99.90
23532;DHT22;11943;52.270;20.978;2023-03-03T00:48:44;-0.10;99.90
23532;DHT22;11943;52.270;20.978;2023-03-03T00:51:32;-0.10;99.90
23532;DHT22;11943;52.270;20.978;2023-03-03T00:53:59;-0.10;99.90
23532;DHT22;11943;52.270;20.978;2023-03-03T00:56:25;-0.10;99.90
23532;DHT22;11943;52.270;20.978;2023-03-03T00:58:51;-0.10;99.90
23532;DHT22;11943;52.270;20.978;2023-03-03T01:01:17;-0.10;99.90
23532;DHT22;11943;52.270;20.978;2023-03-03T01:03:43;-0.20;99.90
23532;DHT22;11943;52.270;20.978;2023-03-03T01:06:09;-0.10;99.90
23532;DHT22;11943;52.270;20.978;2023-03-03T01:08:35;-0.20;99.90
23532;DHT22;11943;52.270;20.978;2023-03-03T01:11:08;-0.10;99.90
23532;DHT22;11943;52.270;20.978;2023-03-03T01:13:34;-0.20;99.90
23532;DHT22;11943;52.270;20.978;2023-03-03T01:16:01;-0.20;99.90
23532;DHT22;11943;52.270;20.978;2023-03-03T01:18:27;-0.10;99.90
23532;DHT22;11943;52.270;20.978;2023-03-03T01:20:53;-0.20;99.90
23532;DHT22;11943;52.270;20.978;2023-03-03T01:23:19;-0.20;99.90
23532;DHT22;11943;52.270;20.978;2023-03-03T01:25:45;-0.20;99.90
23532;DHT22;11943;52.270;20.978;2023-03-03T01:28:10;-0.20;99.90
23532;DHT22;11943;52.270;20.978;2023-03-03T01:30:37;-0.20;99.90
23532;DHT22;11943;52.270;20.978;2023-03-03T01:33:03;-0.20;99.90
23532;DHT22;11943;52.270;20.978;2023-03-03T01:35:28;-0.20;99.90
23532;DHT22;11943;52.270;20.978;2023-03-03T01:37:54;-0.20;99.90
23532;DHT22;11943;52.270;20.978;2023-03-03T01:40:21;-0.20;99.90
23532;DHT22;11943;52.270;20.978;2023-03-03T01:42:47;-0.30;99.90
23532;DHT22;11943;52.270;20.978;2023-03-03T01:45:16;-0.30;99.90
23532;DHT22;11943;52.270;20.978;2023-03-03T01:50:27;-0.30;99.90
23532;DHT22;11943;52.270;20.978;2023-03-03T01:52:54;-0.30;99.90
23532;DHT22;11943;52.270;20.978;2023-03-03T01:55:22;-0.30;99.90
23532;DHT22;11943;52.270;20.978;2023-03-03T01:57:54;-0.30;99.90
23532;DHT22;11943;52.270;20.978;2023-03-03T02:00:22;-0.30;99.90
23532;DHT22;11943;52.270;20.978;2023-03-03T02:02:48;-0.30;99.90
23532;DHT22;11943;52.270;20.978;2023-03-03T02:05:14;-0.30;99.90
23532;DHT22;11943;52.270;20.978;2023-03-03T02:07:40;-0.30;99.90
23532;DHT22;11943;52.270;20.978;2023-03-03T02:10:10;1.10;99.90
23532;DHT22;11943;52.270;20.978;2023-03-03T02:12:37;-0.20;99.90
23532;DHT22;11943;52.270;20.978;2023-03-03T02:17:42;-0.20;99.90
23532;DHT22;11943;52.270;20.978;2023-03-03T02:20:11;-0.20;99.90
23532;DHT22;11943;52.270;20.978;2023-03-03T02:22:50;-0.20;99.90
23532;DHT22;11943;52.270;20.978;2023-03-03T02:25:20;-0.30;99.90
23532;DHT22;11943;52.270;20.978;2023-03-03T02:27:51;-0.30;99.90
23532;DHT22;11943;52.270;20.978;2023-03-03T02:30:19;-0.30;99.90
23532;DHT22;11943;52.270;20.978;2023-03-03T02:32:45;-0.30;99.90
23532;DHT22;11943;52.270;20.978;2023-03-03T02:37:55;-0.40;99.90
23532;DHT22;11943;52.270;20.978;2023-03-03T02:40:24;-0.30;99.90
23532;DHT22;11943;52.270;20.978;2023-03-03T02:42:50;-0.40;99.90
23532;DHT22;11943;52.270;20.978;2023-03-03T02:45:16;-0.40;99.90
23532;DHT22;11943;52.270;20.978;2023-03-03T02:47:47;-0.40;99.90
23532;DHT22;11943;52.270;20.978;2023-03-03T02:50:13;-0.40;99.90
23532;DHT22;11943;52.270;20.978;2023-03-03T02:52:39;-0.50;99.90
23532;DHT22;11943;52.270;20.978;2023-03-03T02:55:05;-0.50;99.90
23532;DHT22;11943;52.270;20.978;2023-03-03T02:57:30;-0.50;99.90
23532;DHT22;11943;52.270;20.978;2023-03-03T02:59:56;-0.50;99.90
23532;DHT22;11943;52.270;20.978;2023-03-03T03:02:21;-0.50;99.90
23532;DHT22;11943;52.270;20.978;2023-03-03T03:04:47;-0.50;99.90
23532;DHT22;11943;52.270;20.978;2023-03-03T03:07:12;-0.50;99.90
23532;DHT22;11943;52.270;20.978;2023-03-03T03:09:38;-0.60;99.90
23532;DHT22;11943;52.270;20.978;2023-03-03T03:12:04;-0.60;99.90
23532;DHT22;11943;52.270;20.978;2023-03-03T03:14:29;-0.60;99.90
23532;DHT22;11943;52.270;20.978;2023-03-03T03:16:55;0.70;99.90
23532;DHT22;11943;52.270;20.978;2023-03-03T03:19:20;-0.60;99.90
23532;DHT22;11943;52.270;20.978;2023-03-03T03:21:46;-0.70;99.90
23532;DHT22;11943;52.270;20.978;2023-03-03T03:24:11;-0.70;99.90
23532;DHT22;11943;52.270;20.978;2023-03-03T03:26:37;-1.50;99.90
23532;DHT22;11943;52.270;20.978;2023-03-03T03:29:02;-0.70;99.90
23532;DHT22;11943;52.270;20.978;2023-03-03T03:31:28;-0.70;99.90
23532;DHT22;11943;52.270;20.978;2023-03-03T03:33:53;-0.70;99.90
23532;DHT22;11943;52.270;20.978;2023-03-03T03:36:19;-0.70;99.90
23532;DHT22;11943;52.270;20.978;2023-03-03T03:38:44;-0.80;99.90
23532;DHT22;11943;52.270;20.978;2023-03-03T03:41:10;0.20;99.90
23532;DHT22;11943;52.270;20.978;2023-03-03T03:43:36;-0.80;99.90
23532;DHT22;11943;52.270;20.978;2023-03-03T03:46:01;-0.80;99.90
23532;DHT22;11943;52.270;20.978;2023-03-03T03:48:27;-0.80;99.90
23532;DHT22;11943;52.270;20.978;2023-03-03T03:50:52;-0.80;99.90
23532;DHT22;11943;52.270;20.978;2023-03-03T03:53:18;-0.80;99.90
23532;DHT22;11943;52.270;20.978;2023-03-03T03:55:44;-0.80;99.90
23532;DHT22;11943;52.270;20.978;2023-03-03T03:58:13;-0.80;99.90
23532;DHT22;11943;52.270;20.978;2023-03-03T04:00:40;-0.80;99.90
23532;DHT22;11943;52.270;20.978;2023-03-03T04:03:06;-0.90;99.90
23532;DHT22;11943;52.270;20.978;2023-03-03T04:05:31;-0.80;99.90
23532;DHT22;11943;52.270;20.978;2023-03-03T04:07:57;-0.80;99.90
23532;DHT22;11943;52.270;20.978;2023-03-03T04:10:23;-0.80;99.90
23532;DHT22;11943;52.270;20.978;2023-03-03T04:12:48;-0.80;99.90
23532;DHT22;11943;52.270;20.978;2023-03-03T04:15:13;-0.80;99.90
23532;DHT22;11943;52.270;20.978;2023-03-03T04:17:39;-0.80;99.90
23532;DHT22;11943;52.270;20.978;2023-03-03T04:20:05;-0.80;99.90
23532;DHT22;11943;52.270;20.978;2023-03-03T04:22:31;-0.80;99.90
23532;DHT22;11943;52.270;20.978;2023-03-03T04:25:00;-0.80;99.90
23532;DHT22;11943;52.270;20.978;2023-03-03T04:27:30;-0.80;99.90
23532;DHT22;11943;52.270;20.978;2023-03-03T04:29:56;-0.80;99.90
23532;DHT22;11943;52.270;20.978;2023-03-03T04:32:21;-0.80;99.90
23532;DHT22;11943;52.270;20.978;2023-03-03T04:34:47;-0.80;99.90
23532;DHT22;11943;52.270;20.978;2023-03-03T04:37:12;-0.80;99.90
23532;DHT22;11943;52.270;20.978;2023-03-03T04:39:38;-0.80;99.90
23532;DHT22;11943;52.270;20.978;2023-03-03T04:42:03;-0.90;99.90
23532;DHT22;11943;52.270;20.978;2023-03-03T04:44:29;-0.90;99.90
23532;DHT22;11943;52.270;20.978;2023-03-03T04:46:54;-0.90;99.90
23532;DHT22;11943;52.270;20.978;2023-03-03T04:49:20;-0.90;99.90
23532;DHT22;11943;52.270;20.978;2023-03-03T04:51:45;-0.90;99.90
23532;DHT22;11943;52.270;20.978;2023-03-03T04:54:11;-0.90;99.90
23532;DHT22;11943;52.270;20.978;2023-03-03T04:56:36;-1.00;99.90
23532;DHT22;11943;52.270;20.978;2023-03-03T04:59:02;-1.00;99.90
23532;DHT22;11943;52.270;20.978;2023-03-03T05:01:27;-1.00;99.90
23532;DHT22;11943;52.270;20.978;2023-03-03T05:03:53;-1.00;99.90
23532;DHT22;11943;52.270;20.978;2023-03-03T05:06:18;-1.00;99.90
23532;DHT22;11943;52.270;20.978;2023-03-03T05:08:44;-1.00;99.90
23532;DHT22;11943;52.270;20.978;2023-03-03T05:11:10;-1.00;99.90
23532;DHT22;11943;52.270;20.978;2023-03-03T05:13:35;-1.00;99.90
23532;DHT22;11943;52.270;20.978;2023-03-03T05:16:01;-1.00;99.90
23532;DHT22;11943;52.270;20.978;2023-03-03T05:18:26;-1.00;99.90
23532;DHT22;11943;52.270;20.978;2023-03-03T05:20:52;-1.00;99.90
23532;DHT22;11943;52.270;20.978;2023-03-03T05:23:18;-0.90;99.90
23532;DHT22;11943;52.270;20.978;2023-03-03T05:25:45;-0.90;99.90
23532;DHT22;11943;52.270;20.978;2023-03-03T05:28:11;-0.80;99.90
23532;DHT22;11943;52.270;20.978;2023-03-03T05:30:37;-0.80;99.90
23532;DHT22;11943;52.270;20.978;2023-03-03T05:33:03;-0.80;99.90
23532;DHT22;11943;52.270;20.978;2023-03-03T05:35:29;-0.80;99.90
23532;DHT22;11943;52.270;20.978;2023-03-03T05:37:54;-0.80;99.90
23532;DHT22;11943;52.270;20.978;2023-03-03T05:40:22;-0.80;99.90
23532;DHT22;11943;52.270;20.978;2023-03-03T05:42:48;-0.80;99.90
23532;DHT22;11943;52.270;20.978;2023-03-03T05:45:13;-0.80;99.90
23532;DHT22;11943;52.270;20.978;2023-03-03T05:47:39;-0.80;99.90
23532;DHT22;11943;52.270;20.978;2023-03-03T05:50:05;-0.80;99.90
23532;DHT22;11943;52.270;20.978;2023-03-03T05:52:30;-0.80;99.90
23532;DHT22;11943;52.270;20.978;2023-03-03T05:54:56;-0.80;99.90
23532;DHT22;11943;52.270;20.978;2023-03-03T05:57:21;-0.80;99.90
23532;DHT22;11943;52.270;20.978;2023-03-03T05:59:47;-0.70;99.90
23532;DHT22;11943;52.270;20.978;2023-03-03T06:02:13;-0.70;99.90
23532;DHT22;11943;52.270;20.978;2023-03-03T06:04:38;-0.70;99.90
23532;DHT22;11943;52.270;20.978;2023-03-03T06:07:04;-0.70;99.90
23532;DHT22;11943;52.270;20.978;2023-03-03T06:09:29;-0.70;99.90
23532;DHT22;11943;52.270;20.978;2023-03-03T06:11:56;-0.70;99.90
23532;DHT22;11943;52.270;20.978;2023-03-03T06:14:21;-0.70;99.90
23532;DHT22;11943;52.270;20.978;2023-03-03T06:16:47;-0.70;99.90
23532;DHT22;11943;52.270;20.978;2023-03-03T06:19:13;-0.80;99.90
23532;DHT22;11943;52.270;20.978;2023-03-03T06:21:39;-0.70;99.90
23532;DHT22;11943;52.270;20.978;2023-03-03T06:24:04;-0.70;99.90
23532;DHT22;11943;52.270;20.978;2023-03-03T06:26:30;-0.60;99.90
23532;DHT22;11943;52.270;20.978;2023-03-03T06:28:56;-0.60;99.90
23532;DHT22;11943;52.270;20.978;2023-03-03T06:31:22;-0.60;99.90
23532;DHT22;11943;52.270;20.978;2023-03-03T06:33:47;-0.60;99.90
23532;DHT22;11943;52.270;20.978;2023-03-03T06:36:13;-0.70;99.90
23532;DHT22;11943;52.270;20.978;2023-03-03T06:38:38;-0.70;99.90
23532;DHT22;11943;52.270;20.978;2023-03-03T06:41:04;-0.60;99.90
23532;DHT22;11943;52.270;20.978;2023-03-03T06:43:32;-0.60;99.90
23532;DHT22;11943;52.270;20.978;2023-03-03T06:45:57;-0.60;99.90
23532;DHT22;11943;52.270;20.978;2023-03-03T06:48:23;-0.70;99.90
23532;DHT22;11943;52.270;20.978;2023-03-03T06:50:48;-0.70;99.90
23532;DHT22;11943;52.270;20.978;2023-03-03T06:53:14;-0.70;99.90
23532;DHT22;11943;52.270;20.978;2023-03-03T06:55:40;-0.70;99.90
23532;DHT22;11943;52.270;20.978;2023-03-03T06:58:15;-0.70;99.90
23532;DHT22;11943;52.270;20.978;2023-03-03T07:00:42;-0.70;99.90
23532;DHT22;11943;52.270;20.978;2023-03-03T07:03:12;-0.60;99.90
23532;DHT22;11943;52.270;20.978;2023-03-03T07:05:38;-0.50;99.90
23532;DHT22;11943;52.270;20.978;2023-03-03T07:08:05;-0.40;99.90
23532;DHT22;11943;52.270;20.978;2023-03-03T07:10:31;1.10;99.90
23532;DHT22;11943;52.270;20.978;2023-03-03T07:13:00;-0.40;99.90
23532;DHT22;11943;52.270;20.978;2023-03-03T07:15:29;-0.40;99.90
23532;DHT22;11943;52.270;20.978;2023-03-03T07:17:58;-0.50;99.90
23532;DHT22;11943;52.270;20.978;2023-03-03T07:20:27;-0.40;99.90
23532;DHT22;11943;52.270;20.978;2023-03-03T07:22:54;-0.30;99.90
23532;DHT22;11943;52.270;20.978;2023-03-03T07:25:32;-0.40;99.90
23532;DHT22;11943;52.270;20.978;2023-03-03T07:28:06;-0.40;99.90
23532;DHT22;11943;52.270;20.978;2023-03-03T07:30:36;-0.40;99.90
23532;DHT22;11943;52.270;20.978;2023-03-03T07:33:01;0.30;99.90
23532;DHT22;11943;52.270;20.978;2023-03-03T07:38:11;-0.30;99.90
23532;DHT22;11943;52.270;20.978;2023-03-03T07:40:42;-0.20;99.90
23532;DHT22;11943;52.270;20.978;2023-03-03T07:43:21;-0.10;99.90
23532;DHT22;11943;52.270;20.978;2023-03-03T07:45:51;-0.10;99.90
23532;DHT22;11943;52.270;20.978;2023-03-03T07:48:24;-0.10;99.90
23532;DHT22;11943;52.270;20.978;2023-03-03T07:51:15;-0.10;99.90
23532;DHT22;11943;52.270;20.978;2023-03-03T07:53:43;0.00;99.90
23532;DHT22;11943;52.270;20.978;2023-03-03T07:56:42;0.00;99.90
23532;DHT22;11943;52.270;20.978;2023-03-03T07:59:02;0.00;99.90
23532;DHT22;11943;52.270;20.978;2023-03-03T08:01:37;0.10;99.90
23532;DHT22;11943;52.270;20.978;2023-03-03T08:04:54;0.10;99.90
23532;DHT22;11943;52.270;20.978;2023-03-03T08:07:01;0.20;99.90
23532;DHT22;11943;52.270;20.978;2023-03-03T08:09:37;0.30;99.90
23532;DHT22;11943;52.270;20.978;2023-03-03T08:14:35;0.30;99.90
23532;DHT22;11943;52.270;20.978;2023-03-03T08:17:01;0.40;99.90
23532;DHT22;11943;52.270;20.978;2023-03-03T08:19:31;1.50;99.90
23532;DHT22;11943;52.270;20.978;2023-03-03T08:22:40;0.50;99.90
23532;DHT22;11943;52.270;20.978;2023-03-03T08:24:47;0.40;99.90
23532;DHT22;11943;52.270;20.978;2023-03-03T08:27:12;0.50;99.90
23532;DHT22;11943;52.270;20.978;2023-03-03T08:29:38;0.60;99.90
23532;DHT22;11943;52.270;20.978;2023-03-03T08:32:04;0.60;99.90
23532;DHT22;11943;52.270;20.978;2023-03-03T08:34:30;0.50;99.90
23532;DHT22;11943;52.270;20.978;2023-03-03T08:36:55;0.60;99.90
23532;DHT22;11943;52.270;20.978;2023-03-03T08:39:22;0.50;99.90
23532;DHT22;11943;52.270;20.978;2023-03-03T08:41:48;0.50;99.90
23532;DHT22;11943;52.270;20.978;2023-03-03T08:44:13;0.40;99.90
23532;DHT22;11943;52.270;20.978;2023-03-03T08:46:39;0.40;99.90
23532;DHT22;11943;52.270;20.978;2023-03-03T08:49:05;0.40;99.90
23532;DHT22;11943;52.270;20.978;2023-03-03T08:51:30;0.40;99.90
23532;DHT22;11943;52.270;20.978;2023-03-03T08:53:58;0.40;99.90
23532;DHT22;11943;52.270;20.978;2023-03-03T08:56:23;0.40;99.90
23532;DHT22;11943;52.270;20.978;2023-03-03T08:58:49;0.40;99.90
23532;DHT22;11943;52.270;20.978;2023-03-03T09:01:15;0.50;99.90
23532;DHT22;11943;52.270;20.978;2023-03-03T09:03:43;0.50;99.90
23532;DHT22;11943;52.270;20.978;2023-03-03T09:06:09;0.60;99.90
23532;DHT22;11943;52.270;20.978;2023-03-03T09:08:35;0.60;99.90
23532;DHT22;11943;52.270;20.978;2023-03-03T09:11:00;0.70;99.90
23532;DHT22;11943;52.270;20.978;2023-03-03T09:13:27;0.80;99.90
23532;DHT22;11943;52.270;20.978;2023-03-03T09:15:53;0.80;99.90
23532;DHT22;11943;52.270;20.978;2023-03-03T09:18:20;0.90;99.90
23532;DHT22;11943;52.270;20.978;2023-03-03T09:20:50;1.00;99.90
23532;DHT22;11943;52.270;20.978;2023-03-03T09:25:41;1.00;99.90
23532;DHT22;11943;52.270;20.978;2023-03-03T09:28:18;0.90;99.90
23532;DHT22;11943;52.270;20.978;2023-03-03T09:30:47;0.80;99.90
23532;DHT22;11943;52.270;20.978;2023-03-03T09:35:45;0.70;99.90
23532;DHT22;11943;52.270;20.978;2023-03-03T09:38:17;0.70;99.90
23532;DHT22;11943;52.270;20.978;2023-03-03T09:40:54;0.70;99.90
23532;DHT22;11943;52.270;20.978;2023-03-03T09:46:13;0.70;99.90
23532;DHT22;11943;52.270;20.978;2023-03-03T09:54:04;0.80;99.90
23532;DHT22;11943;52.270;20.978;2023-03-03T09:57:16;0.90;99.90
23532;DHT22;11943;52.270;20.978;2023-03-03T10:04:50;0.90;99.90
23532;DHT22;11943;52.270;20.978;2023-03-03T10:12:42;0.80;99.90
23532;DHT22;11943;52.270;20.978;2023-03-03T10:20:53;0.70;99.90
23532;DHT22;11943;52.270;20.978;2023-03-03T10:36:08;0.70;99.90
23532;DHT22;11943;52.270;20.978;2023-03-03T10:46:24;0.70;99.90
23532;DHT22;11943;52.270;20.978;2023-03-03T10:56:49;0.60;99.90
